Time,TemperatureF,DewpointF,PressureIn,WindDirection,WindDirectionDegrees,WindSpeedMPH,WindSpeedGustMPH,Humidity,HourlyPrecipIn,Conditions,Clouds,dailyrainin,SoftwareType,DateUTC
2013-03-03 00:00:00,28.2,19.4,30.17,NE,45,2.9,5.1,69,0.00,,,0.00,WUHU216HW,2013-03-03 05:00:00,
2013-03-03 00:05:00,28.2,19.4,30.17,NE,45,2.0,3.8,69,0.00,,,0.00,WUHU216HW,2013-03-03 05:05:00,
2013-03-03 00:10:00,28.2,19.4,30.16,NE,45,0.0,2.4,69,0.00,,,0.00,WUHU216HW,2013-03-03 05:10:00,
2013-03-03 00:15:00,28.0,19.2,30.16,NNE,23,1.5,6.4,69,0.00,,,0.00,WUHU216HW,2013-03-03 05:15:00,
2013-03-03 00:20:00,28.0,19.5,30.16,NNE,23,2.0,6.4,70,0.00,,,0.00,WUHU216HW,2013-03-03 05:20:00,
2013-03-03 00:25:00,28.0,19.5,30.16,NNE,23,5.3,5.3,70,0.00,,,0.00,WUHU216HW,2013-03-03 05:25:00,
2013-03-03 00:30:00,28.0,19.2,30.16,North,0,2.0,5.3,69,0.00,,,0.00,WUHU216HW,2013-03-03 05:30:00,
2013-03-03 00:35:00,28.0,19.2,30.16,NE,45,2.0,8.5,69,0.00,,,0.00,WUHU216HW,2013-03-03 05:35:00,
2013-03-03 00:40:00,28.0,19.2,30.16,North,0,2.0,8.5,69,0.00,,,0.00,WUHU216HW,2013-03-03 05:40:00,
2013-03-03 00:45:00,27.8,19.0,30.16,NNE,23,0.0,2.4,69,0.00,,,0.00,WUHU216HW,2013-03-03 05:45:00,
2013-03-03 00:50:00,27.6,18.8,30.16,NNW,338,9.1,9.1,69,0.00,,,0.00,WUHU216HW,2013-03-03 05:50:00,
2013-03-03 00:55:00,27.6,18.8,30.16,North,0,2.4,9.1,69,0.00,,,0.00,WUHU216HW,2013-03-03 05:55:00,
2013-03-03 01:00:00,27.6,18.8,30.16,North,0,1.5,9.1,69,0.00,,,0.00,WUHU216HW,2013-03-03 06:00:00,
2013-03-03 01:05:00,27.6,18.8,30.16,NNW,338,2.4,3.1,69,0.00,,,0.00,WUHU216HW,2013-03-03 06:05:00,
2013-03-03 01:10:00,27.5,18.6,30.16,NE,45,0.0,3.1,69,0.00,,,0.00,WUHU216HW,2013-03-03 06:10:00,
2013-03-03 01:15:00,27.5,18.6,30.16,NE,45,2.0,2.4,69,0.00,,,0.00,WUHU216HW,2013-03-03 06:15:00,
2013-03-03 01:20:00,27.3,18.5,30.16,NE,45,3.3,3.3,69,0.00,,,0.00,WUHU216HW,2013-03-03 06:20:00,
2013-03-03 01:25:00,27.3,18.5,30.16,NE,45,0.0,3.3,69,0.00,,,0.00,WUHU216HW,2013-03-03 06:25:00,
2013-03-03 01:30:00,27.3,18.5,30.15,NE,45,2.6,3.3,69,0.00,,,0.00,WUHU216HW,2013-03-03 06:30:00,
2013-03-03 01:35:00,27.3,18.5,30.15,ENE,68,1.7,3.5,69,0.00,,,0.00,WUHU216HW,2013-03-03 06:35:00,
2013-03-03 01:40:00,27.1,18.3,30.15,NE,45,1.5,3.5,69,0.00,,,0.00,WUHU216HW,2013-03-03 06:40:00,
2013-03-03 01:45:00,27.1,18.6,30.15,NE,45,0.6,1.7,70,0.00,,,0.00,WUHU216HW,2013-03-03 06:45:00,
2013-03-03 01:50:00,27.1,18.6,30.15,NE,45,0.0,2.9,70,0.00,,,0.00,WUHU216HW,2013-03-03 06:50:00,
2013-03-03 01:55:00,27.1,18.6,30.15,ENE,68,1.3,2.9,70,0.00,,,0.00,WUHU216HW,2013-03-03 06:55:00,
2013-03-03 02:00:00,26.9,18.5,30.15,NE,45,0.0,2.6,70,0.00,,,0.00,WUHU216HW,2013-03-03 07:00:00,
2013-03-03 02:05:00,26.9,18.5,30.16,North,0,0.0,2.6,70,0.00,,,0.00,WUHU216HW,2013-03-03 07:05:00,
2013-03-03 02:10:00,26.9,18.5,30.15,North,0,0.0,0.0,70,0.00,,,0.00,WUHU216HW,2013-03-03 07:10:00,
2013-03-03 02:15:00,26.9,18.5,30.15,NE,45,2.9,2.9,70,0.00,,,0.00,WUHU216HW,2013-03-03 07:15:00,
2013-03-03 02:20:00,26.7,18.1,30.15,ENE,68,0.6,2.9,69,0.00,,,0.00,WUHU216HW,2013-03-03 07:20:00,
2013-03-03 02:26:00,26.7,17.9,30.15,NE,45,0.0,0.6,69,0.00,,,0.00,WUHU216HW,2013-03-03 07:26:00,
2013-03-03 02:30:00,26.7,17.9,30.15,NE,45,2.0,2.0,69,0.00,,,0.00,WUHU216HW,2013-03-03 07:30:00,
2013-03-03 02:35:00,26.6,17.7,30.15,NE,45,2.4,3.1,69,0.00,,,0.00,WUHU216HW,2013-03-03 07:35:00,
2013-03-03 02:40:00,26.4,17.6,30.15,NE,45,0.0,3.1,69,0.00,,,0.00,WUHU216HW,2013-03-03 07:40:00,
2013-03-03 02:45:00,26.4,17.6,30.14,ENE,68,1.3,3.1,69,0.00,,,0.00,WUHU216HW,2013-03-03 07:45:00,
2013-03-03 02:50:00,26.4,17.6,30.13,NE,45,1.5,3.1,69,0.00,,,0.00,WUHU216HW,2013-03-03 07:50:00,
2013-03-03 02:55:00,26.2,17.4,30.13,NE,45,2.0,2.0,69,0.00,,,0.00,WUHU216HW,2013-03-03 07:55:00,
2013-03-03 03:00:00,26.2,17.4,30.13,NE,45,0.0,2.0,69,0.00,,,0.00,WUHU216HW,2013-03-03 08:00:00,
2013-03-03 03:05:00,26.2,17.4,30.13,NE,45,3.1,3.1,69,0.00,,,0.00,WUHU216HW,2013-03-03 08:05:00,
2013-03-03 03:10:00,26.2,17.4,30.13,NE,45,0.0,3.1,69,0.00,,,0.00,WUHU216HW,2013-03-03 08:10:00,
2013-03-03 03:15:00,26.2,17.4,30.13,NE,45,1.5,3.1,69,0.00,,,0.00,WUHU216HW,2013-03-03 08:15:00,
2013-03-03 03:20:00,26.2,17.4,30.13,NE,45,2.4,3.1,69,0.00,,,0.00,WUHU216HW,2013-03-03 08:20:00,
2013-03-03 03:25:00,26.0,17.2,30.13,NE,45,0.0,3.1,69,0.00,,,0.00,WUHU216HW,2013-03-03 08:25:00,
2013-03-03 03:30:00,26.0,17.2,30.13,NE,45,0.0,2.4,69,0.00,,,0.00,WUHU216HW,2013-03-03 08:30:00,
2013-03-03 03:35:00,25.8,17.0,30.13,NE,45,0.0,1.3,69,0.00,,,0.00,WUHU216HW,2013-03-03 08:35:00,
2013-03-03 03:40:00,25.8,17.0,30.12,NE,45,0.0,1.3,69,0.00,,,0.00,WUHU216HW,2013-03-03 08:40:00,
2013-03-03 03:45:00,25.8,17.0,30.12,NE,45,0.0,1.1,69,0.00,,,0.00,WUHU216HW,2013-03-03 08:45:00,
2013-03-03 03:50:00,25.8,17.0,30.12,NE,45,0.0,1.1,69,0.00,,,0.00,WUHU216HW,2013-03-03 08:50:00,
2013-03-03 03:55:00,25.7,16.5,30.12,ESE,113,1.5,1.5,68,0.00,,,0.00,WUHU216HW,2013-03-03 08:55:00,
2013-03-03 04:00:00,25.5,16.3,30.12,ENE,68,0.0,1.5,68,0.00,,,0.00,WUHU216HW,2013-03-03 09:00:00,
2013-03-03 04:05:00,25.5,16.7,30.11,ENE,68,0.0,1.5,69,0.00,,,0.00,WUHU216HW,2013-03-03 09:05:00,
2013-03-03 04:10:00,25.5,16.7,30.12,ENE,68,0.0,0.8,69,0.00,,,0.00,WUHU216HW,2013-03-03 09:10:00,
2013-03-03 04:15:00,25.5,16.7,30.11,ENE,68,0.6,0.6,69,0.00,,,0.00,WUHU216HW,2013-03-03 09:15:00,
2013-03-03 04:21:00,25.3,16.5,30.12,ENE,68,0.0,1.1,69,0.00,,,0.00,WUHU216HW,2013-03-03 09:21:00,
2013-03-03 04:26:00,25.3,16.5,30.11,NE,45,0.0,4.2,69,0.00,,,0.00,WUHU216HW,2013-03-03 09:26:00,
2013-03-03 04:31:00,25.3,16.5,30.11,NE,45,3.5,4.2,69,0.00,,,0.00,WUHU216HW,2013-03-03 09:31:00,
2013-03-03 04:36:00,25.1,16.3,30.11,NE,45,1.1,3.5,69,0.00,,,0.00,WUHU216HW,2013-03-03 09:36:00,
2013-03-03 04:41:00,25.1,16.3,30.11,NE,45,5.8,5.8,69,0.00,,,0.00,WUHU216HW,2013-03-03 09:41:00,
2013-03-03 04:46:00,25.1,16.3,30.11,NE,45,1.1,5.8,69,0.00,,,0.00,WUHU216HW,2013-03-03 09:46:00,
2013-03-03 04:51:00,24.9,16.1,30.11,NE,45,0.8,5.8,69,0.00,,,0.00,WUHU216HW,2013-03-03 09:51:00,
2013-03-03 04:56:00,24.9,16.1,30.11,NE,45,0.0,2.0,69,0.00,,,0.00,WUHU216HW,2013-03-03 09:56:00,
2013-03-03 05:01:00,24.9,16.1,30.11,NE,45,0.0,2.4,69,0.00,,,0.00,WUHU216HW,2013-03-03 10:01:00,
2013-03-03 05:06:00,24.9,16.1,30.11,NE,45,0.0,2.4,69,0.00,,,0.00,WUHU216HW,2013-03-03 10:06:00,
2013-03-03 05:11:00,24.9,16.1,30.11,ENE,68,1.1,1.7,69,0.00,,,0.00,WUHU216HW,2013-03-03 10:11:00,
2013-03-03 05:16:00,24.9,16.1,30.11,NE,45,0.0,1.1,69,0.00,,,0.00,WUHU216HW,2013-03-03 10:16:00,
2013-03-03 05:21:00,24.9,16.1,30.11,NE,45,0.0,1.1,69,0.00,,,0.00,WUHU216HW,2013-03-03 10:21:00,
2013-03-03 05:26:00,24.9,16.1,30.11,NE,45,1.3,1.3,69,0.00,,,0.00,WUHU216HW,2013-03-03 10:26:00,
2013-03-03 05:31:00,24.9,16.1,30.11,East,90,0.0,1.3,69,0.00,,,0.00,WUHU216HW,2013-03-03 10:31:00,
2013-03-03 05:36:00,24.8,15.9,30.11,ESE,113,0.0,1.3,69,0.00,,,0.00,WUHU216HW,2013-03-03 10:36:00,
2013-03-03 05:41:00,24.9,16.1,30.11,ESE,113,0.8,0.8,69,0.00,,,0.00,WUHU216HW,2013-03-03 10:41:00,
2013-03-03 05:46:00,24.8,15.9,30.11,ESE,113,0.0,0.8,69,0.00,,,0.00,WUHU216HW,2013-03-03 10:46:00,
2013-03-03 05:51:00,24.6,15.8,30.11,ESE,113,0.0,0.8,70,0.00,,,0.00,WUHU216HW,2013-03-03 10:51:00,
2013-03-03 05:56:00,24.6,15.8,30.11,ENE,68,0.0,0.8,69,0.00,,,0.00,WUHU216HW,2013-03-03 10:56:00,
2013-03-03 06:01:00,24.6,15.8,30.11,ENE,68,0.6,0.8,69,0.00,,,0.00,WUHU216HW,2013-03-03 11:01:00,
2013-03-03 06:06:00,24.6,16.1,30.11,ENE,68,0.0,0.6,70,0.00,,,0.00,WUHU216HW,2013-03-03 11:06:00,
2013-03-03 06:11:00,24.6,16.1,30.12,NE,45,0.0,0.0,70,0.00,,,0.00,WUHU216HW,2013-03-03 11:11:00,
2013-03-03 06:16:00,24.6,15.8,30.12,NE,45,0.0,0.0,69,0.00,,,0.00,WUHU216HW,2013-03-03 11:16:00,
2013-03-03 06:21:00,24.6,15.8,30.12,NE,45,1.3,1.3,69,0.00,,,0.00,WUHU216HW,2013-03-03 11:21:00,
2013-03-03 06:26:00,24.6,15.8,30.12,NE,45,2.0,2.0,69,0.00,,,0.00,WUHU216HW,2013-03-03 11:26:00,
2013-03-03 06:31:00,24.6,15.8,30.12,NE,45,0.0,2.0,69,0.00,,,0.00,WUHU216HW,2013-03-03 11:31:00,
2013-03-03 06:36:00,24.6,15.8,30.12,NE,45,2.0,2.0,69,0.00,,,0.00,WUHU216HW,2013-03-03 11:36:00,
2013-03-03 06:41:00,24.4,15.6,30.12,NE,45,1.1,2.0,69,0.00,,,0.00,WUHU216HW,2013-03-03 11:41:00,
2013-03-03 06:46:00,24.4,15.6,30.12,NE,45,0.0,2.0,69,0.00,,,0.00,WUHU216HW,2013-03-03 11:46:00,
2013-03-03 06:51:00,24.4,15.6,30.12,NNE,23,0.0,1.1,69,0.00,,,0.00,WUHU216HW,2013-03-03 11:51:00,
2013-03-03 06:56:00,24.4,15.6,30.12,NE,45,0.0,0.0,69,0.00,,,0.00,WUHU216HW,2013-03-03 11:56:00,
2013-03-03 07:01:00,24.4,15.6,30.12,SE,135,0.0,0.0,69,0.00,,,0.00,WUHU216HW,2013-03-03 12:01:00,
2013-03-03 07:06:00,24.4,15.6,30.13,ENE,68,1.3,1.3,69,0.00,,,0.00,WUHU216HW,2013-03-03 12:06:00,
2013-03-03 07:11:00,24.4,15.6,30.12,NE,45,0.0,2.2,69,0.00,,,0.00,WUHU216HW,2013-03-03 12:11:00,
2013-03-03 07:16:00,24.2,15.4,30.13,ENE,68,0.0,2.2,69,0.00,,,0.00,WUHU216HW,2013-03-03 12:16:00,
2013-03-03 07:21:00,24.0,15.3,30.13,NE,45,1.1,2.6,69,0.00,,,0.00,WUHU216HW,2013-03-03 12:21:00,
2013-03-03 07:26:00,24.0,15.3,30.13,NE,45,1.1,2.6,69,0.00,,,0.00,WUHU216HW,2013-03-03 12:26:00,
2013-03-03 07:31:00,24.0,15.3,30.14,NE,45,0.0,1.1,69,0.00,,,0.00,WUHU216HW,2013-03-03 12:31:00,
2013-03-03 07:36:00,24.0,15.3,30.14,NE,45,0.0,1.1,69,0.00,,,0.00,WUHU216HW,2013-03-03 12:36:00,
2013-03-03 07:41:00,24.0,15.3,30.15,NE,45,0.0,0.0,69,0.00,,,0.00,WUHU216HW,2013-03-03 12:41:00,
2013-03-03 07:46:00,24.2,15.4,30.15,NE,45,0.0,0.0,69,0.00,,,0.00,WUHU216HW,2013-03-03 12:46:00,
2013-03-03 07:51:00,24.4,16.0,30.15,NE,45,0.0,1.1,70,0.00,,,0.00,WUHU216HW,2013-03-03 12:51:00,
2013-03-03 07:56:00,24.4,16.0,30.16,NE,45,0.0,1.1,70,0.00,,,0.00,WUHU216HW,2013-03-03 12:56:00,
2013-03-03 08:01:00,24.4,16.0,30.16,NE,45,0.0,0.0,70,0.00,,,0.00,WUHU216HW,2013-03-03 13:01:00,
2013-03-03 08:06:00,24.4,16.0,30.16,NE,45,0.0,0.0,70,0.00,,,0.00,WUHU216HW,2013-03-03 13:06:00,
2013-03-03 08:11:00,24.6,16.1,30.16,NE,45,0.0,0.0,70,0.00,,,0.00,WUHU216HW,2013-03-03 13:11:00,
2013-03-03 08:16:00,24.9,16.8,30.16,NE,45,0.0,0.0,71,0.00,,,0.00,WUHU216HW,2013-03-03 13:16:00,
2013-03-03 08:21:00,24.9,16.8,30.16,NE,45,0.0,0.0,71,0.00,,,0.00,WUHU216HW,2013-03-03 13:21:00,
2013-03-03 08:26:00,24.9,16.8,30.17,NE,45,0.0,0.0,71,0.00,,,0.00,WUHU216HW,2013-03-03 13:26:00,
2013-03-03 08:50:00,25.1,16.7,30.18,ESE,113,0.0,0.0,70,0.00,,,0.00,WUHU216HW,2013-03-03 13:50:00,
2013-03-03 08:55:00,25.1,16.7,30.18,ESE,113,0.0,0.0,70,0.00,,,0.00,WUHU216HW,2013-03-03 13:55:00,
2013-03-03 09:00:00,25.5,17.0,30.18,ESE,113,0.0,0.0,70,0.00,,,0.00,WUHU216HW,2013-03-03 14:00:00,
2013-03-03 09:05:00,26.0,17.6,30.18,ESE,113,0.0,0.0,70,0.00,,,0.00,WUHU216HW,2013-03-03 14:05:00,
2013-03-03 09:10:00,26.9,18.5,30.19,ESE,113,0.0,0.0,70,0.00,,,0.00,WUHU216HW,2013-03-03 14:10:00,
2013-03-03 09:15:00,27.3,19.1,30.18,SSE,158,0.0,0.0,71,0.00,,,0.00,WUHU216HW,2013-03-03 14:15:00,
2013-03-03 09:20:00,28.0,19.5,30.19,SE,135,0.0,0.0,70,0.00,,,0.00,WUHU216HW,2013-03-03 14:20:00,
2013-03-03 09:25:00,28.5,20.1,30.19,SE,135,0.0,0.0,70,0.00,,,0.00,WUHU216HW,2013-03-03 14:25:00,
2013-03-03 09:30:00,28.9,20.4,30.18,East,90,0.0,0.0,70,0.00,,,0.00,WUHU216HW,2013-03-03 14:30:00,
2013-03-03 09:35:00,28.9,20.4,30.19,East,90,0.0,0.0,70,0.00,,,0.00,WUHU216HW,2013-03-03 14:35:00,
2013-03-03 09:40:00,28.9,20.4,30.19,East,90,0.0,0.0,70,0.00,,,0.00,WUHU216HW,2013-03-03 14:40:00,
2013-03-03 10:03:00,0.0,19.5,30.20,West,270,0.0,0.0,67,0.00,,,0.00,WUHU216HW,2013-03-03 15:03:00,
2013-03-03 10:08:00,0.0,-8.3,30.20,WSW,248,0.6,3.1,67,0.00,,,0.00,WUHU216HW,2013-03-03 15:08:00,
2013-03-03 10:13:00,0.0,-8.3,30.19,WSW,248,0.0,3.1,67,0.00,,,0.00,WUHU216HW,2013-03-03 15:13:00,
2013-03-03 10:18:00,30.5,20.8,30.19,SW,225,2.4,2.6,67,0.00,,,0.00,WUHU216HW,2013-03-03 15:18:00,
2013-03-03 10:23:00,30.9,20.8,30.20,NNW,338,0.0,3.5,66,0.00,,,0.00,WUHU216HW,2013-03-03 15:23:00,
2013-03-03 10:28:00,31.8,21.7,30.20,West,270,0.0,3.5,66,0.00,,,0.00,WUHU216HW,2013-03-03 15:28:00,
2013-03-03 10:33:00,32.7,22.2,30.20,West,270,0.0,1.3,65,0.00,,,0.00,WUHU216HW,2013-03-03 15:33:00,
2013-03-03 10:38:00,32.7,21.8,30.19,NW,315,5.3,5.3,64,0.00,,,0.00,WUHU216HW,2013-03-03 15:38:00,
2013-03-03 10:43:00,32.9,21.6,30.20,NW,315,2.6,5.3,63,0.00,,,0.00,WUHU216HW,2013-03-03 15:43:00,
2013-03-03 10:48:00,33.0,21.8,30.20,WNW,293,2.9,5.3,63,0.00,,,0.00,WUHU216HW,2013-03-03 15:48:00,
2013-03-03 10:53:00,33.6,22.2,30.19,WNW,293,2.2,5.3,63,0.00,,,0.00,WUHU216HW,2013-03-03 15:53:00,
2013-03-03 10:58:00,34.3,23.0,30.20,WSW,248,2.6,3.8,63,0.00,,,0.00,WUHU216HW,2013-03-03 15:58:00,
2013-03-03 11:03:00,34.3,22.2,30.19,West,270,2.9,5.1,61,0.00,,,0.00,WUHU216HW,2013-03-03 16:03:00,
2013-03-03 11:08:00,34.3,22.2,30.20,West,270,3.8,5.1,61,0.00,,,0.00,WUHU216HW,2013-03-03 16:08:00,
2013-03-03 11:13:00,35.2,23.1,30.20,NNE,23,0.0,5.5,61,0.00,,,0.00,WUHU216HW,2013-03-03 16:13:00,
2013-03-03 11:18:00,35.7,23.3,30.20,NW,315,3.8,5.5,60,0.00,,,0.00,WUHU216HW,2013-03-03 16:18:00,
2013-03-03 11:23:00,36.5,23.9,30.19,NNW,338,3.5,3.8,60,0.00,,,0.00,WUHU216HW,2013-03-03 16:23:00,
2013-03-03 11:28:00,36.6,23.2,30.20,West,270,3.3,3.8,58,0.00,,,0.00,WUHU216HW,2013-03-03 16:28:00,
2013-03-03 11:33:00,35.9,22.2,30.19,West,270,3.5,3.5,57,0.00,,,0.00,WUHU216HW,2013-03-03 16:33:00,
2013-03-03 11:38:00,35.9,22.2,30.20,West,270,3.5,3.5,57,0.00,,,0.00,WUHU216HW,2013-03-03 16:38:00,
2013-03-03 11:43:00,35.9,22.2,30.19,West,270,3.5,3.5,57,0.00,,,0.00,WUHU216HW,2013-03-03 16:43:00,
2013-03-03 11:48:00,34.5,21.6,30.20,WNW,293,3.5,3.5,59,0.00,,,0.00,WUHU216HW,2013-03-03 16:48:00,
2013-03-03 11:53:00,34.5,21.6,30.19,WNW,293,3.5,3.5,59,0.00,,,0.00,WUHU216HW,2013-03-03 16:53:00,
2013-03-03 11:58:00,35.2,22.3,30.20,WNW,293,3.5,3.5,59,0.00,,,0.00,WUHU216HW,2013-03-03 16:58:00,
2013-03-03 12:03:00,35.4,22.1,30.19,West,270,2.0,3.5,58,0.00,,,0.00,WUHU216HW,2013-03-03 17:03:00,
2013-03-03 12:08:00,34.8,21.5,30.19,North,0,2.2,3.5,58,0.00,,,0.00,WUHU216HW,2013-03-03 17:08:00,
2013-03-03 12:13:00,35.4,22.1,30.20,NW,315,2.9,2.9,58,0.00,,,0.00,WUHU216HW,2013-03-03 17:13:00,
2013-03-03 12:18:00,35.4,21.7,30.19,NW,315,4.0,4.0,57,0.00,,,0.00,WUHU216HW,2013-03-03 17:18:00,
2013-03-03 12:23:00,34.8,21.1,30.19,NNW,338,2.9,4.6,57,0.00,,,0.00,WUHU216HW,2013-03-03 17:23:00,
2013-03-03 12:28:00,34.8,21.1,30.19,North,0,3.1,4.6,57,0.00,,,0.00,WUHU216HW,2013-03-03 17:28:00,
2013-03-03 12:33:00,35.2,21.5,30.18,NW,315,3.8,4.0,57,0.00,,,0.00,WUHU216HW,2013-03-03 17:33:00,
2013-03-03 12:38:00,35.4,21.7,30.18,NW,315,3.8,4.0,57,0.00,,,0.00,WUHU216HW,2013-03-03 17:38:00,
2013-03-03 12:43:00,35.4,21.2,30.18,NW,315,3.8,3.8,56,0.00,,,0.00,WUHU216HW,2013-03-03 17:43:00,
2013-03-03 12:48:00,36.1,21.5,30.18,NW,315,6.0,6.0,55,0.00,,,0.00,WUHU216HW,2013-03-03 17:48:00,
2013-03-03 12:53:00,36.1,21.5,30.18,NW,315,6.0,6.0,55,0.00,,,0.00,WUHU216HW,2013-03-03 17:53:00,
2013-03-03 12:58:00,36.5,21.3,30.18,North,0,5.3,8.2,54,0.00,,,0.00,WUHU216HW,2013-03-03 17:58:00,
2013-03-03 13:03:00,37.0,21.4,30.18,NNW,338,12.0,12.0,53,0.00,,,0.00,WUHU216HW,2013-03-03 18:03:00,
2013-03-03 13:10:00,36.8,20.8,30.18,NNW,338,10.5,12.0,52,0.00,,,0.00,WUHU216HW,2013-03-03 18:10:00,
2013-03-03 13:15:00,37.0,21.0,30.17,WNW,293,6.0,10.5,52,0.00,,,0.00,WUHU216HW,2013-03-03 18:15:00,
2013-03-03 13:20:00,37.0,20.5,30.18,WNW,293,6.2,10.5,51,0.00,,,0.00,WUHU216HW,2013-03-03 18:20:00,
2013-03-03 13:25:00,37.5,21.5,30.17,NNW,338,8.5,8.5,52,0.00,,,0.00,WUHU216HW,2013-03-03 18:25:00,
2013-03-03 13:30:00,38.4,22.3,30.17,North,0,11.4,11.4,52,0.00,,,0.00,WUHU216HW,2013-03-03 18:30:00,
2013-03-03 13:35:00,39.3,22.6,30.17,NNW,338,9.8,13.6,51,0.00,,,0.00,WUHU216HW,2013-03-03 18:35:00,
2013-03-03 13:40:00,39.7,22.5,30.17,NNW,338,7.1,13.6,50,0.00,,,0.00,WUHU216HW,2013-03-03 18:40:00,
2013-03-03 13:45:00,39.5,21.9,30.17,NW,315,9.1,11.6,49,0.00,,,0.00,WUHU216HW,2013-03-03 18:45:00,
2013-03-03 13:50:00,39.0,21.9,30.17,NNW,338,4.4,9.1,50,0.00,,,0.00,WUHU216HW,2013-03-03 18:50:00,
2013-03-03 13:55:00,39.0,21.4,30.17,NNW,338,8.0,10.7,49,0.00,,,0.00,WUHU216HW,2013-03-03 18:55:00,
2013-03-03 14:00:00,38.4,20.9,30.17,North,0,9.6,10.7,49,0.00,,,0.00,WUHU216HW,2013-03-03 19:00:00,
2013-03-03 14:05:00,38.4,20.9,30.17,NW,315,3.5,9.6,49,0.00,,,0.00,WUHU216HW,2013-03-03 19:05:00,
2013-03-03 14:10:00,38.4,20.9,30.17,North,0,8.2,10.0,49,0.00,,,0.00,WUHU216HW,2013-03-03 19:10:00,
2013-03-03 14:15:00,38.4,20.9,30.17,NNW,338,3.1,10.0,49,0.00,,,0.00,WUHU216HW,2013-03-03 19:15:00,
2013-03-03 14:20:00,38.1,20.6,30.17,NNW,338,9.6,9.6,49,0.00,,,0.00,WUHU216HW,2013-03-03 19:20:00,
2013-03-03 14:25:00,38.8,21.2,30.17,NW,315,4.2,10.7,49,0.00,,,0.00,WUHU216HW,2013-03-03 19:25:00,
2013-03-03 14:30:00,39.2,21.0,30.16,NW,315,4.4,11.1,48,0.00,,,0.00,WUHU216HW,2013-03-03 19:30:00,
2013-03-03 14:35:00,39.3,21.2,30.16,NNW,338,3.8,11.1,48,0.00,,,0.00,WUHU216HW,2013-03-03 19:35:00,
2013-03-03 14:40:00,40.1,21.3,30.16,North,0,3.1,9.6,47,0.00,,,0.00,WUHU216HW,2013-03-03 19:40:00,
2013-03-03 14:45:00,40.6,21.8,30.16,NNW,338,6.7,9.6,47,0.00,,,0.00,WUHU216HW,2013-03-03 19:45:00,
2013-03-03 14:50:00,40.8,21.9,30.16,North,0,7.3,9.6,47,0.00,,,0.00,WUHU216HW,2013-03-03 19:50:00,
2013-03-03 14:55:00,40.8,21.4,30.16,NW,315,9.1,9.6,46,0.00,,,0.00,WUHU216HW,2013-03-03 19:55:00,
2013-03-03 15:00:00,40.8,20.9,30.17,NNW,338,8.5,9.1,45,0.00,,,0.00,WUHU216HW,2013-03-03 20:00:00,
2013-03-03 15:05:00,40.4,20.6,30.17,NW,315,6.9,9.1,45,0.00,,,0.00,WUHU216HW,2013-03-03 20:05:00,
2013-03-03 15:10:00,40.2,19.9,30.17,WNW,293,6.2,8.9,44,0.00,,,0.00,WUHU216HW,2013-03-03 20:10:00,
2013-03-03 15:15:00,39.9,19.6,30.17,NNW,338,2.4,10.0,44,0.00,,,0.00,WUHU216HW,2013-03-03 20:15:00,
2013-03-03 15:20:00,39.7,19.4,30.16,North,0,6.0,11.4,44,0.00,,,0.00,WUHU216HW,2013-03-03 20:20:00,
2013-03-03 15:25:00,39.9,19.6,30.16,NNW,338,6.0,11.4,44,0.00,,,0.00,WUHU216HW,2013-03-03 20:25:00,
2013-03-03 15:30:00,40.2,19.4,30.16,NNW,338,8.5,8.5,43,0.00,,,0.00,WUHU216HW,2013-03-03 20:30:00,
2013-03-03 15:35:00,40.6,19.7,30.17,North,0,9.1,9.1,43,0.00,,,0.00,WUHU216HW,2013-03-03 20:35:00,
2013-03-03 15:40:00,40.8,19.3,30.16,NW,315,9.8,9.8,42,0.00,,,0.00,WUHU216HW,2013-03-03 20:40:00,
2013-03-03 15:45:00,40.4,19.5,30.16,WNW,293,9.3,9.8,43,0.00,,,0.00,WUHU216HW,2013-03-03 20:45:00,
2013-03-03 15:50:00,40.1,18.7,30.16,NW,315,8.7,9.8,42,0.00,,,0.00,WUHU216HW,2013-03-03 20:50:00,
2013-03-03 15:55:00,39.9,19.0,30.16,NNW,338,4.0,9.1,43,0.00,,,0.00,WUHU216HW,2013-03-03 20:55:00,
2013-03-03 16:00:00,40.1,19.2,30.16,NNW,338,3.1,9.1,43,0.00,,,0.00,WUHU216HW,2013-03-03 21:00:00,
2013-03-03 16:05:00,40.2,19.4,30.16,North,0,10.2,10.2,43,0.00,,,0.00,WUHU216HW,2013-03-03 21:05:00,
2013-03-03 16:10:00,40.1,18.7,30.16,North,0,8.2,10.2,42,0.00,,,0.00,WUHU216HW,2013-03-03 21:10:00,
2013-03-03 16:15:00,40.1,19.2,30.17,NNW,338,7.6,10.2,43,0.00,,,0.00,WUHU216HW,2013-03-03 21:15:00,
2013-03-03 16:20:00,39.9,19.0,30.16,NNW,338,5.5,8.2,43,0.00,,,0.00,WUHU216HW,2013-03-03 21:20:00,
2013-03-03 16:25:00,40.2,19.4,30.16,NNW,338,2.2,7.8,43,0.00,,,0.00,WUHU216HW,2013-03-03 21:25:00,
2013-03-03 16:30:00,40.6,19.7,30.17,NNW,338,5.5,7.8,43,0.00,,,0.00,WUHU216HW,2013-03-03 21:30:00,
2013-03-03 16:35:00,40.4,19.5,30.17,WNW,293,5.5,5.5,43,0.00,,,0.00,WUHU216HW,2013-03-03 21:35:00,
2013-03-03 16:40:00,40.4,19.5,30.17,NW,315,6.0,6.0,43,0.00,,,0.00,WUHU216HW,2013-03-03 21:40:00,
2013-03-03 16:45:00,40.2,19.4,30.17,NW,315,6.0,6.0,43,0.00,,,0.00,WUHU216HW,2013-03-03 21:45:00,
2013-03-03 16:50:00,40.1,19.2,30.17,NW,315,6.7,10.2,43,0.00,,,0.00,WUHU216HW,2013-03-03 21:50:00,
2013-03-03 16:55:00,39.7,18.9,30.17,NNW,338,3.1,10.2,43,0.00,,,0.00,WUHU216HW,2013-03-03 21:55:00,
2013-03-03 17:00:00,39.5,18.7,30.17,NNW,338,3.1,6.7,43,0.00,,,0.00,WUHU216HW,2013-03-03 22:00:00,
2013-03-03 17:05:00,39.0,18.6,30.18,NNW,338,7.8,7.8,43,0.00,,,0.00,WUHU216HW,2013-03-03 22:05:00,
2013-03-03 17:10:00,39.0,18.2,30.17,NNW,338,4.0,7.8,43,0.00,,,0.00,WUHU216HW,2013-03-03 22:10:00,
2013-03-03 17:15:00,39.0,18.2,30.17,NNW,338,4.0,7.8,43,0.00,,,0.00,WUHU216HW,2013-03-03 22:15:00,
2013-03-03 17:20:00,38.6,18.4,30.17,NNW,338,8.9,8.9,44,0.00,,,0.00,WUHU216HW,2013-03-03 22:20:00,
2013-03-03 17:25:00,38.4,18.3,30.18,NW,315,4.0,8.9,44,0.00,,,0.00,WUHU216HW,2013-03-03 22:25:00,
2013-03-03 17:30:00,38.3,18.1,30.18,NNW,338,7.6,8.9,44,0.00,,,0.00,WUHU216HW,2013-03-03 22:30:00,
2013-03-03 17:35:00,37.9,17.8,30.18,North,0,2.9,7.6,44,0.00,,,0.00,WUHU216HW,2013-03-03 22:35:00,
2013-03-03 17:40:00,38.1,17.9,30.17,NNW,338,5.8,7.3,44,0.00,,,0.00,WUHU216HW,2013-03-03 22:40:00,
2013-03-03 17:45:00,37.9,17.8,30.17,NNW,338,2.0,7.3,44,0.00,,,0.00,WUHU216HW,2013-03-03 22:45:00,
2013-03-03 17:50:00,37.5,17.5,30.18,NNW,338,3.3,5.8,44,0.00,,,0.00,WUHU216HW,2013-03-03 22:50:00,
2013-03-03 17:55:00,37.2,17.1,30.18,NNW,338,3.3,3.3,44,0.00,,,0.00,WUHU216HW,2013-03-03 22:55:00,
2013-03-03 18:00:00,36.6,17.2,30.18,WNW,293,4.2,4.2,45,0.00,,,0.00,WUHU216HW,2013-03-03 23:00:00,
2013-03-03 18:05:00,36.3,17.4,30.17,NW,315,1.1,5.8,46,0.00,,,0.00,WUHU216HW,2013-03-03 23:05:00,
2013-03-03 18:10:00,35.4,16.5,30.18,NW,315,2.2,5.8,46,0.00,,,0.00,WUHU216HW,2013-03-03 23:10:00,
2013-03-03 18:15:00,35.2,16.9,30.18,NW,315,2.2,2.2,47,0.00,,,0.00,WUHU216HW,2013-03-03 23:15:00,
2013-03-03 18:20:00,34.7,16.4,30.18,WNW,293,0.0,2.2,47,0.00,,,0.00,WUHU216HW,2013-03-03 23:20:00,
2013-03-03 18:25:00,34.5,16.2,30.18,WNW,293,3.5,3.5,47,0.00,,,0.00,WUHU216HW,2013-03-03 23:25:00,
2013-03-03 18:30:00,33.4,15.7,30.18,North,0,5.8,6.7,48,0.00,,,0.00,WUHU216HW,2013-03-03 23:30:00,
2013-03-03 18:35:00,32.7,15.0,30.18,NW,315,3.5,6.7,48,0.00,,,0.00,WUHU216HW,2013-03-03 23:35:00,
2013-03-03 18:40:00,31.6,14.6,30.18,NW,315,2.4,3.5,49,0.00,,,0.00,WUHU216HW,2013-03-03 23:40:00,
2013-03-03 18:45:00,31.2,14.7,30.18,NNW,338,3.1,3.5,50,0.00,,,0.00,WUHU216HW,2013-03-03 23:45:00,
2013-03-03 18:50:00,30.5,14.5,30.18,North,0,2.0,6.2,51,0.00,,,0.00,WUHU216HW,2013-03-03 23:50:00,
2013-03-03 18:55:00,30.0,14.0,30.18,NNW,338,4.4,6.2,51,0.00,,,0.00,WUHU216HW,2013-03-03 23:55:00,
2013-03-03 19:00:00,29.8,14.3,30.18,NW,315,3.1,5.8,52,0.00,,,0.00,WUHU216HW,2013-03-04 00:00:00,
2013-03-03 19:05:00,29.3,14.2,30.18,WNW,293,0.8,7.6,53,0.00,,,0.00,WUHU216HW,2013-03-04 00:05:00,
2013-03-03 19:10:00,29.3,14.2,30.18,NNW,338,7.3,7.6,53,0.00,,,0.00,WUHU216HW,2013-03-04 00:10:00,
2013-03-03 19:15:00,29.1,14.5,30.18,NW,315,2.4,7.3,54,0.00,,,0.00,WUHU216HW,2013-03-04 00:15:00,
2013-03-03 19:20:00,28.9,14.7,30.19,NNW,338,5.8,7.3,55,0.00,,,0.00,WUHU216HW,2013-03-04 00:20:00,
2013-03-03 19:27:00,28.7,14.5,30.18,NNW,338,4.6,5.8,55,0.00,,,0.00,WUHU216HW,2013-03-04 00:27:00,
2013-03-03 19:32:00,28.5,14.4,30.19,NNW,338,2.6,4.6,55,0.00,,,0.00,WUHU216HW,2013-03-04 00:32:00,
2013-03-03 19:37:00,28.5,14.4,30.18,NNW,338,0.0,2.9,55,0.00,,,0.00,WUHU216HW,2013-03-04 00:37:00,
2013-03-03 19:42:00,28.4,14.6,30.19,WNW,293,3.5,3.5,56,0.00,,,0.00,WUHU216HW,2013-03-04 00:42:00,
2013-03-03 19:47:00,28.2,14.5,30.19,North,0,2.9,3.5,56,0.00,,,0.00,WUHU216HW,2013-03-04 00:47:00,
2013-03-03 19:52:00,28.2,14.9,30.19,NNW,338,0.0,2.9,57,0.00,,,0.00,WUHU216HW,2013-03-04 00:52:00,
2013-03-03 19:57:00,28.0,14.7,30.19,NNW,338,3.1,3.1,57,0.00,,,0.00,WUHU216HW,2013-03-04 00:57:00,
2013-03-03 20:02:00,28.0,14.7,30.20,North,0,1.5,3.1,57,0.00,,,0.00,WUHU216HW,2013-03-04 01:02:00,
2013-03-03 20:07:00,27.6,14.3,30.20,NW,315,1.7,8.2,57,0.00,,,0.00,WUHU216HW,2013-03-04 01:07:00,
2013-03-03 20:12:00,27.6,14.7,30.19,NNW,338,4.0,8.2,58,0.00,,,0.00,WUHU216HW,2013-03-04 01:12:00,
2013-03-03 20:17:00,27.6,14.7,30.20,NW,315,1.7,4.0,58,0.00,,,0.00,WUHU216HW,2013-03-04 01:17:00,
2013-03-03 20:22:00,27.5,14.6,30.19,NNW,338,3.8,3.8,58,0.00,,,0.00,WUHU216HW,2013-03-04 01:22:00,
2013-03-03 20:27:00,27.3,14.4,30.19,North,0,2.6,3.8,58,0.00,,,0.00,WUHU216HW,2013-03-04 01:27:00,
2013-03-03 20:32:00,27.3,14.4,30.19,NW,315,2.2,3.8,58,0.00,,,0.00,WUHU216HW,2013-03-04 01:32:00,
2013-03-03 20:37:00,27.1,14.6,30.20,NW,315,4.9,4.9,59,0.00,,,0.00,WUHU216HW,2013-03-04 01:37:00,
2013-03-03 20:42:00,26.9,14.4,30.19,NNW,338,0.0,4.9,59,0.00,,,0.00,WUHU216HW,2013-03-04 01:42:00,
2013-03-03 20:47:00,26.9,14.4,30.19,NNW,338,2.9,4.9,59,0.00,,,0.00,WUHU216HW,2013-03-04 01:47:00,
2013-03-03 20:52:00,26.9,14.9,30.19,NNW,338,4.6,4.6,60,0.00,,,0.00,WUHU216HW,2013-03-04 01:52:00,
2013-03-03 20:57:00,26.9,14.9,30.19,NNW,338,3.3,4.6,60,0.00,,,0.00,WUHU216HW,2013-03-04 01:57:00,
2013-03-03 21:02:00,26.7,14.7,30.19,North,0,2.4,5.1,60,0.00,,,0.00,WUHU216HW,2013-03-04 02:02:00,
2013-03-03 21:07:00,26.6,14.5,30.20,NNW,338,3.8,5.1,60,0.00,,,0.00,WUHU216HW,2013-03-04 02:07:00,
2013-03-03 21:12:00,26.4,14.3,30.20,North,0,4.0,5.1,60,0.00,,,0.00,WUHU216HW,2013-03-04 02:12:00,
2013-03-03 21:17:00,26.4,14.3,30.19,NNW,338,3.5,4.0,60,0.00,,,0.00,WUHU216HW,2013-03-04 02:17:00,
2013-03-03 21:22:00,26.4,14.7,30.20,NNW,338,6.4,6.4,61,0.00,,,0.00,WUHU216HW,2013-03-04 02:22:00,
2013-03-03 21:27:00,26.4,14.7,30.19,NNW,338,3.5,6.4,61,0.00,,,0.00,WUHU216HW,2013-03-04 02:27:00,
2013-03-03 21:32:00,26.2,14.5,30.19,NNW,338,3.5,6.4,61,0.00,,,0.00,WUHU216HW,2013-03-04 02:32:00,
2013-03-03 21:37:00,26.2,14.5,30.19,North,0,2.4,4.4,61,0.00,,,0.00,WUHU216HW,2013-03-04 02:37:00,
2013-03-03 21:42:00,26.2,14.5,30.19,NNW,338,4.6,4.6,61,0.00,,,0.00,WUHU216HW,2013-03-04 02:42:00,
2013-03-03 21:47:00,26.0,14.7,30.19,North,0,0.0,4.6,62,0.00,,,0.00,WUHU216HW,2013-03-04 02:47:00,
2013-03-03 21:52:00,26.0,14.7,30.19,North,0,3.3,3.8,62,0.00,,,0.00,WUHU216HW,2013-03-04 02:52:00,
2013-03-03 21:57:00,25.8,14.5,30.18,NNW,338,0.0,3.3,62,0.00,,,0.00,WUHU216HW,2013-03-04 02:57:00,
2013-03-03 22:02:00,25.8,14.5,30.19,North,0,1.5,3.3,62,0.00,,,0.00,WUHU216HW,2013-03-04 03:02:00,
2013-03-03 22:07:00,25.8,14.9,30.18,NNW,338,2.4,3.3,63,0.00,,,0.00,WUHU216HW,2013-03-04 03:07:00,
2013-03-03 22:12:00,25.8,14.9,30.19,North,0,0.0,2.4,63,0.00,,,0.00,WUHU216HW,2013-03-04 03:12:00,
2013-03-03 22:17:00,25.8,14.9,30.18,NNW,338,2.0,4.4,63,0.00,,,0.00,WUHU216HW,2013-03-04 03:17:00,
2013-03-03 22:22:00,25.8,14.9,30.18,North,0,3.5,4.4,63,0.00,,,0.00,WUHU216HW,2013-03-04 03:22:00,
2013-03-03 22:27:00,25.7,14.7,30.19,North,0,0.0,3.5,63,0.00,,,0.00,WUHU216HW,2013-03-04 03:27:00,
2013-03-03 22:32:00,25.7,14.7,30.18,NNW,338,2.2,4.2,63,0.00,,,0.00,WUHU216HW,2013-03-04 03:32:00,
2013-03-03 22:37:00,25.7,14.7,30.18,NNW,338,1.5,7.6,63,0.00,,,0.00,WUHU216HW,2013-03-04 03:37:00,
2013-03-03 22:42:00,25.5,14.6,30.19,North,0,0.0,7.6,63,0.00,,,0.00,WUHU216HW,2013-03-04 03:42:00,
2013-03-03 22:47:00,25.5,14.6,30.18,NNW,338,2.0,2.2,63,0.00,,,0.00,WUHU216HW,2013-03-04 03:47:00,
2013-03-03 22:52:00,25.5,14.9,30.18,NNW,338,1.5,2.2,64,0.00,,,0.00,WUHU216HW,2013-03-04 03:52:00,
2013-03-03 22:57:00,25.5,14.9,30.18,NNW,338,3.5,3.5,64,0.00,,,0.00,WUHU216HW,2013-03-04 03:57:00,
2013-03-03 23:02:00,25.5,14.9,30.18,NNW,338,5.3,5.3,64,0.00,,,0.00,WUHU216HW,2013-03-04 04:02:00,
2013-03-03 23:07:00,25.5,14.9,30.18,North,0,0.0,5.3,64,0.00,,,0.00,WUHU216HW,2013-03-04 04:07:00,
2013-03-03 23:12:00,25.5,14.9,30.18,North,0,5.3,5.3,64,0.00,,,0.00,WUHU216HW,2013-03-04 04:12:00,
2013-03-03 23:17:00,25.5,15.3,30.19,North,0,0.6,5.3,65,0.00,,,0.00,WUHU216HW,2013-03-04 04:17:00,
2013-03-03 23:22:00,25.5,15.3,30.19,NNW,338,5.5,5.5,65,0.00,,,0.00,WUHU216HW,2013-03-04 04:22:00,
2013-03-03 23:27:00,25.5,15.3,30.19,NNE,23,0.6,5.5,65,0.00,,,0.00,WUHU216HW,2013-03-04 04:27:00,
2013-03-03 23:32:00,25.5,15.3,30.18,NNW,338,5.1,5.5,65,0.00,,,0.00,WUHU216HW,2013-03-04 04:32:00,
2013-03-03 23:37:00,25.5,15.3,30.18,NNE,23,1.1,7.3,65,0.00,,,0.00,WUHU216HW,2013-03-04 04:37:00,
2013-03-03 23:42:00,25.5,15.3,30.18,NNW,338,2.6,7.3,65,0.00,,,0.00,WUHU216HW,2013-03-04 04:42:00,
2013-03-03 23:47:00,25.5,15.3,30.19,NNW,338,4.9,6.7,65,0.00,,,0.00,WUHU216HW,2013-03-04 04:47:00,
2013-03-03 23:52:00,25.5,15.3,30.19,North,0,1.5,6.7,65,0.00,,,0.00,WUHU216HW,2013-03-04 04:52:00,
2013-03-03 23:57:00,25.5,15.3,30.19,North,0,0.0,4.4,65,0.00,,,0.00,WUHU216HW,2013-03-04 04:57:00,